• Join FlightAware (Why Join?)
  • Login
  • US Flag 
02:04PM EDT


 

Airport Tracker/Info


-or-


 

Live Flight TrackerFlight Track Log ✈ AAL1796 ✈ 11-Apr-2013 ✈ KDFW - KMCI

Flight Track Log - Related Links

Times and Time Zones

All times are in EDT time to prevent confusion due to time zone crossing. See the AAL1796 flight status page for this flight to view local times or setup timezone preferences in your user account.

Time Position Orientation Groundspeed Altitude Reporting Facility
EDT Latitude Longitude Course Direction KTS MPH feet Rate Location/Type
06:50PM 32.7667 -97.1000 335° Northwest 260 299 6,400  Level Dallas / Fort Worth TRACON
06:51PM 32.8591 -96.8000 North  Level FlightAware Approximate
06:52PM 32.9805 -96.8000 North  Level FlightAware Approximate
06:52PM 32.7706 -97.2356 272° West 269 310 10,700  Level Fort Worth Center
06:53PM 33.0887 -96.8646 331° Northwest  Level FlightAware Approximate
06:53PM 32.8394 -97.2775 333° Northwest 263 303 12,400  Level Fort Worth Center
06:54PM 33.1946 -96.9352 331° Northwest  Level FlightAware Approximate
06:54PM 32.9481 -97.2747 North 311 358 15,300  Level Fort Worth Center
06:55PM 33.2872 -96.9987 328° Northwest  Level FlightAware Approximate
06:55PM 33.0442 -97.2572 North 366 421 17,000  Level Fort Worth Center
06:56PM 33.3806 -97.0603 335° Northwest  Level FlightAware Approximate
06:56PM 33.1631 -97.2150 17° North 399 459 19,500  Level Fort Worth Center
06:57PM 33.2694 -97.1750 17° North 425 489 21,100 1,740 Climbing Fort Worth Center
06:58PM 33.4028 -97.1297 16° North 444 511 23,000 1,680 Climbing Fort Worth Center
06:59PM 33.5258 -97.0844 17° North 450 518 24,500 1,380 Climbing Fort Worth Center
07:00PM 33.6553 -97.0392 16° North 460 529 25,800 1,500 Climbing Fort Worth Center
07:01PM 33.7844 -96.9961 15° North 471 542 27,500 1,800 Climbing Fort Worth Center
07:02PM 33.9117 -96.9531 16° North 471 542 29,400 1,620 Climbing Fort Worth Center
07:03PM 34.0389 -96.9072 17° North 471 542 30,800 1,440 Climbing Fort Worth Center
07:04PM 34.1575 -96.8664 16° North 457 526 32,300 1,020 Climbing Fort Worth Center
07:05PM 34.2825 -96.8228 16° North 452 520 32,900 300 Climbing Fort Worth Center
07:06PM 34.4056 -96.7792 16° North 452 520 33,000  Climbing Fort Worth Center
07:07PM 34.5261 -96.7356 17° North 452 520 33,000  Level Fort Worth Center
07:08PM 34.6492 -96.6917 16° North 452 520 33,000  Level Fort Worth Center
07:09PM 34.7739 -96.6475 16° North 452 520 33,000  Level Fort Worth Center
07:10PM 34.8989 -96.6033 16° North 458 527 33,000  Level Fort Worth Center
07:11PM 35.0236 -96.5592 16° North 458 527 33,100 -360 Climbing Fort Worth Center
07:13PM 35.2414 -96.4792 17° North 462 532 32,100 -720 Descending Kansas City Center
07:14PM 35.3647 -96.4344 16° North 464 534 31,100 -600 Descending Kansas City Center
07:15PM 35.4889 -96.3900 16° North 466 536 31,000 -60 Descending Kansas City Center
07:16PM 35.6389 -96.3336 17° North 470 541 31,000  Level Kansas City Center
07:17PM 35.7653 -96.2883 16° North 474 545 31,000  Level Kansas City Center
07:18PM 35.8833 -96.2461 16° North 474 545 31,000  Level Kansas City Center
07:19PM 36.0100 -96.2000 16° North 472 543 31,000  Level Kansas City Center
07:20PM 36.1381 -96.1672 12° North 467 537 31,000  Level Kansas City Center
07:21PM 36.2914 -96.1269 12° North 466 536 31,000  Level Kansas City Center
07:22PM 36.4189 -96.0914 13° North 464 534 31,000  Level Kansas City Center
07:23PM 36.5461 -96.0564 12° North 464 534 31,100  Climbing Kansas City Center
07:24PM 36.6742 -96.0222 12° North 465 535 31,000 -120 Descending Kansas City Center
07:25PM 36.8008 -95.9867 13° North 463 533 30,900  Descending Kansas City Center
07:26PM 36.9281 -95.9531 12° North 462 532 31,000  Climbing Kansas City Center
07:27PM 37.0533 -95.9189 12° North 459 528 31,000 -60 Level Kansas City Center
07:28PM 37.1794 -95.8842 12° North 460 529 30,900  Descending Kansas City Center
07:29PM 37.3322 -95.8414 13° North 464 534 31,000  Climbing Kansas City Center
07:30PM 37.4583 -95.8067 12° North 463 533 31,000  Level Kansas City Center
07:32PM 37.5850 -95.7694 13° North 464 534 31,000  Level Kansas City Center
07:33PM 37.7119 -95.7342 12° North 465 535 31,100 -60 Climbing Kansas City Center
07:34PM 37.8389 -95.6978 13° North 464 534 30,900 -1,200 Descending Kansas City Center
07:35PM 37.9786 -95.6611 12° North 466 536 28,700 -2,160 Descending Kansas City Center
07:36PM 38.0989 -95.6264 13° North 464 534 26,400 -2,520 Descending Kansas City Center
07:37PM 38.2389 -95.5850 13° North 456 525 23,500 -2,520 Descending Kansas City Center
07:38PM 38.3542 -95.5528 12° North 449 517 21,200 -2,460 Descending Kansas City Center
07:39PM 38.4792 -95.5008 18° North 423 487 18,400 -2,640 Descending Kansas City Center
07:40PM 38.5825 -95.4472 22° Northeast 417 480 15,800 -2,640 Descending Kansas City Center
07:41PM 38.7000 -95.3889 21° North 404 465 13,000 -1,920 Descending Kansas City Center
07:42PM 38.7939 -95.3414 22° Northeast 382 440 12,000 -480 Descending Kansas City Center
07:43PM 38.8994 -95.2875 22° Northeast 367 422 12,000  Level Kansas City Center
07:44PM 38.9681 -95.1906 48° Northeast 386 444 12,000  Level Kansas City Center
07:45PM 39.0475 -95.0778 48° Northeast 385 443 12,000  Level Kansas City Center
07:46PM 39.1158 -94.9794 48° Northeast 389 448 12,000 -120 Level Kansas City Center
07:47PM 39.1742 -94.8503 60° Northeast 392 451 11,800 -660 Descending Kansas City Center
07:48PM 39.1728 -94.7125 91° East 400 460 10,700 -1,020 Descending Kansas City Center
07:49PM 39.1853 -94.5742 83° East 347 399 9,800 -900 Descending Kansas City Center
07:50PM 39.1878 -94.4742 88° East 293 337 8,900 -1,440 Descending Kansas City Center
07:51PM 39.2236 -94.3981 59° Northeast 251 289 6,900 -1,860 Descending Kansas City Center
07:52PM 39.2789 -94.4072 353° North 210 242 5,100 -1,440 Descending Kansas City Center
07:53PM 39.2800 -94.4703 271° West 205 236 4,000 -1,140 Descending Kansas City Center